createdAt,value
2019-04-16T00:01:14.973Z,975.97
2019-04-16T00:06:04.437Z,975.93
2019-04-16T00:09:50.198Z,976.17
2019-04-16T00:13:39.947Z,976.2
2019-04-16T00:17:10.041Z,976.07
2019-04-16T00:21:00.762Z,976.26
2019-04-16T00:24:33.291Z,976.06
2019-04-16T00:28:03.323Z,976.17
2019-04-16T00:31:34.349Z,976.21
2019-04-16T00:35:07.114Z,976.02
2019-04-16T00:38:40.858Z,976.11
2019-04-16T00:42:11.301Z,976.04
2019-04-16T00:45:41.448Z,976.02
2019-04-16T00:49:11.467Z,976.08
2019-04-16T00:52:41.668Z,976.16
2019-04-16T00:56:13.375Z,976.07
2019-04-16T00:59:45.995Z,975.83
2019-04-16T01:00:15.952Z,975.94
2019-04-16T01:03:46.066Z,975.85
2019-04-16T01:07:16.187Z,975.92
2019-04-16T01:10:46.376Z,975.71
2019-04-16T01:14:16.484Z,975.72
2019-04-16T01:17:46.525Z,975.79
2019-04-16T01:21:17.558Z,975.8
2019-04-16T01:24:51.587Z,975.66
2019-04-16T01:28:25.042Z,975.46
2019-04-16T01:32:37.335Z,975.19
2019-04-16T01:38:30.570Z,975.5
2019-04-16T01:42:00.559Z,975.57
2019-04-16T01:45:30.686Z,975.49
2019-04-16T01:49:00.666Z,975.73
2019-04-16T01:52:30.712Z,975.47
2019-04-16T01:56:00.720Z,975.49
2019-04-16T01:59:35.581Z,975.83
2019-04-16T02:03:06.354Z,975.66
2019-04-16T02:06:36.382Z,975.4
2019-04-16T02:10:07.613Z,975.48
2019-04-16T02:13:38.178Z,975.42
2019-04-16T02:17:08.222Z,975.51
2019-04-16T02:20:39.485Z,975.49
2019-04-16T02:24:10.821Z,975.23
2019-04-16T02:27:41.035Z,975.27
2019-04-16T02:31:15.731Z,975.21
2019-04-16T02:34:46.519Z,975.17
2019-04-16T02:38:16.489Z,974.9
2019-04-16T02:41:46.558Z,975.03
2019-04-16T02:45:23.072Z,975.12
2019-04-16T02:48:53.666Z,975.06
2019-04-16T02:52:32.019Z,975.14
2019-04-16T02:56:18.991Z,974.91
2019-04-16T02:59:49.444Z,974.77
2019-04-16T03:02:42.309Z,974.55
2019-04-16T03:06:12.326Z,974.59
2019-04-16T03:09:42.661Z,974.5
2019-04-16T03:13:12.761Z,974.54
2019-04-16T03:16:51.545Z,974.58
2019-04-16T03:20:24.010Z,974.43
2019-04-16T03:23:54.712Z,974.6
2019-04-16T03:27:25.847Z,974.66
2019-04-16T03:30:56.128Z,974.64
2019-04-16T03:34:26.162Z,974.15
2019-04-16T03:37:56.222Z,974.11
2019-04-16T03:41:26.379Z,974.15
2019-04-16T03:44:56.416Z,974.03
2019-04-16T03:48:26.424Z,974.03
2019-04-16T03:51:56.528Z,974.49
2019-04-16T03:55:26.605Z,974.75
2019-04-16T03:58:56.777Z,975.02
2019-04-16T04:02:26.845Z,975.17
2019-04-16T04:05:57.321Z,975.25
2019-04-16T04:09:27.843Z,975.07
2019-04-16T04:12:57.885Z,975.17
2019-04-16T04:16:30.635Z,975.61
2019-04-16T04:20:04.440Z,976.1
2019-04-16T04:23:34.548Z,976.46
2019-04-16T04:27:04.712Z,977.05
2019-04-16T04:30:35.792Z,977.07
2019-04-16T04:34:05.847Z,977.06
2019-04-16T04:37:36.014Z,976.97
2019-04-16T04:41:06.606Z,977.2
2019-04-16T04:44:37.154Z,977.72
2019-04-16T04:48:10.570Z,978.13
2019-04-16T04:51:43.384Z,978.84
2019-04-16T04:55:13.824Z,979.23
2019-04-16T04:58:43.916Z,980.01
2019-04-16T05:00:15.137Z,980.35
2019-04-16T05:03:54.757Z,981.14
2019-04-16T05:07:25.653Z,981.45
2019-04-16T05:11:01.085Z,981.94
2019-04-16T05:14:32.780Z,982.45
2019-04-16T05:18:05.625Z,982.75
2019-04-16T05:21:36.046Z,983.11
2019-04-16T05:25:06.651Z,983.49
2019-04-16T05:28:36.705Z,983.73
2019-04-16T05:32:07.997Z,984
2019-04-16T05:35:38.585Z,984.26
2019-04-16T05:39:11.430Z,984.7
2019-04-16T05:42:41.532Z,984.81
2019-04-16T05:46:11.608Z,985.45
2019-04-16T05:49:41.691Z,985.88
2019-04-16T05:53:13.557Z,986.64
2019-04-16T05:56:47.541Z,987.48
2019-04-16T06:00:24.098Z,987.95
2019-04-16T06:03:54.340Z,988.24
2019-04-16T06:07:24.440Z,988.61
2019-04-16T06:10:57.328Z,989.51
2019-04-16T06:14:33.599Z,990.3
2019-04-16T06:20:28.322Z,991.84
2019-04-16T06:24:07.957Z,992.3
2019-04-16T06:27:49.973Z,992.8
2019-04-16T06:31:32.736Z,992.92
2019-04-16T06:35:16.984Z,993.6
2019-04-16T06:42:21.323Z,994.4
2019-04-16T06:46:33.421Z,995.1
2019-04-16T06:50:29.576Z,995.75
2019-04-16T06:56:44.064Z,996.28
2019-04-16T07:08:55.940Z,996.52
2019-04-16T07:12:28.886Z,996.88
2019-04-16T07:15:58.931Z,996.95
2019-04-16T07:19:28.963Z,996.94
2019-04-16T07:22:59.079Z,997.86
2019-04-16T07:26:29.325Z,998.56
2019-04-16T07:30:08.677Z,998.25
2019-04-16T07:36:05.575Z,999.31
2019-04-16T07:39:41.540Z,998.35
2019-04-16T07:44:04.474Z,999.43
2019-04-16T07:48:06.222Z,1001.7
2019-04-16T07:51:52.152Z,1003.43
2019-04-16T07:55:29.836Z,1005.4
2019-04-16T07:59:01.460Z,1006.62
2019-04-16T08:02:31.903Z,1008.85
2019-04-16T08:06:02.190Z,1010.62
2019-04-16T08:09:33.650Z,1011.05
2019-04-16T08:13:13.860Z,1009.23
2019-04-16T08:16:47.753Z,1008.58
2019-04-16T08:20:21.022Z,1004.7
2019-04-16T08:23:57.169Z,1004.57
2019-04-16T08:27:27.254Z,1006.04
2019-04-16T08:30:57.334Z,1007.25
2019-04-16T08:34:27.388Z,1008.61
2019-04-16T08:37:58.530Z,1008.24
2019-04-16T08:41:28.967Z,1008.57
2019-04-16T08:44:59.018Z,1010.56
2019-04-16T08:48:29.033Z,1010.79
2019-04-16T08:51:59.068Z,1009.25
2019-04-16T08:55:29.175Z,1009.24
2019-04-16T08:59:01.332Z,1008.41
2019-04-16T09:00:15.501Z,1006.86
2019-04-16T09:03:45.749Z,1006.15
2019-04-16T09:07:50.682Z,1004.5
2019-04-16T09:11:23.614Z,1005.68
2019-04-16T09:14:56.061Z,1008.68
2019-04-16T09:18:31.576Z,1010.38
2019-04-16T09:22:01.600Z,1011.74
2019-04-16T09:25:42.575Z,1012.67
2019-04-16T09:29:55.205Z,1012.23
2019-04-16T09:33:33.572Z,1011.16
2019-04-16T09:37:45.326Z,1010.05
2019-04-16T09:41:50.197Z,1008.16
2019-04-16T09:45:20.405Z,1008.37
2019-04-16T09:48:50.486Z,1009.85
2019-04-16T09:52:23.196Z,1008.76
2019-04-16T09:55:54.126Z,1008.21
2019-04-16T09:59:29.400Z,1009.08
2019-04-16T10:03:06.588Z,1008.87
2019-04-16T10:06:36.765Z,1011.81
2019-04-16T10:10:07.233Z,1012.94
2019-04-16T10:13:37.401Z,1012.84
2019-04-16T10:17:07.916Z,1013.37
2019-04-16T10:20:40.301Z,1015.96
2019-04-16T10:25:24.902Z,1018.02
2019-04-16T10:28:55.240Z,1020.06
2019-04-16T10:32:26.600Z,1019.73
2019-04-16T10:35:57.589Z,1020.45
2019-04-16T10:39:39.831Z,1017.8
2019-04-16T10:45:54.309Z,1017.73
2019-04-16T10:49:46.379Z,1017.78
2019-04-16T10:53:26.458Z,1016.33
2019-04-16T10:57:38.584Z,1014.98
2019-04-16T11:00:27.189Z,1014.04
2019-04-16T11:05:20.599Z,1013.73
2019-04-16T11:08:50.815Z,1016.84
2019-04-16T11:12:20.955Z,1014.61
2019-04-16T11:15:51.154Z,1015.65
2019-04-16T11:19:21.353Z,1019.23
2019-04-16T11:22:51.602Z,1017.7
2019-04-16T11:26:21.709Z,1020.35
2019-04-16T11:29:51.845Z,1020.93
2019-04-16T11:33:22.094Z,1022.45
2019-04-16T11:36:52.161Z,1021.46
2019-04-16T11:40:22.252Z,1021.79
2019-04-16T11:43:52.465Z,1024.13
2019-04-16T11:47:23.548Z,1023.71
2019-04-16T11:50:53.667Z,1024.9
2019-04-16T11:54:23.719Z,1023.99
2019-04-16T11:57:53.775Z,1021.28
2019-04-16T12:01:30.238Z,1016.09
2019-04-16T12:05:05.771Z,1017.83
2019-04-16T12:09:05.308Z,1019.44
2019-04-16T12:17:22.725Z,1023.85
2019-04-16T12:20:59.987Z,1024.42
2019-04-16T12:24:39.546Z,1024.46
2019-04-16T12:28:42.198Z,1025.5
2019-04-16T12:32:53.360Z,1026.69
2019-04-16T12:37:05.435Z,1028.36
2019-04-16T12:40:42.300Z,1026.2
2019-04-16T12:44:45.125Z,1025.83
2019-04-16T12:49:10.389Z,1026.48
2019-04-16T12:55:18.431Z,1027.08
2019-04-16T12:59:24.942Z,1027.48
2019-04-16T13:04:02.102Z,1027.19
2019-04-16T13:07:39.140Z,1030
2019-04-16T13:11:47.088Z,1028.2
2019-04-16T13:15:30.415Z,1028.86
2019-04-16T13:19:38.552Z,1029.7
2019-04-16T13:23:23.185Z,1029.64
2019-04-16T13:26:59.793Z,1030.17
2019-04-16T13:30:29.907Z,1030.61
2019-04-16T13:34:00.076Z,1031.51
2019-04-16T13:37:33.741Z,1029.2
2019-04-16T13:41:06.850Z,1028.67
2019-04-16T13:44:40.701Z,1028.18
2019-04-16T13:48:28.213Z,1030.27
2019-04-16T13:51:59.372Z,1032.46
2019-04-16T13:55:49.414Z,1033.22
2019-04-16T14:00:30.696Z,1033.8
2019-04-16T14:04:03.918Z,1035.48
2019-04-16T14:07:34.043Z,1037.39
2019-04-16T14:11:04.235Z,1037.18
2019-04-16T14:14:34.252Z,1036.79
2019-04-16T14:18:04.607Z,1035.97
2019-04-16T14:21:34.717Z,1036.63
2019-04-16T14:25:05.869Z,1038.35
2019-04-16T14:28:51.243Z,1036.43
2019-04-16T14:32:22.390Z,1036.67
2019-04-16T14:35:52.619Z,1037.4
2019-04-16T14:39:29.749Z,1038.66
2019-04-16T14:42:59.911Z,1037.43
2019-04-16T14:46:30.134Z,1036.69
2019-04-16T14:50:00.170Z,1037
2019-04-16T14:56:00.718Z,1031.13
2019-04-16T14:59:37.809Z,1030.19
2019-04-16T15:00:31.256Z,1031.03
2019-04-16T15:04:11.827Z,1032.24
2019-04-16T15:08:04.676Z,1033.67
2019-04-16T15:14:04.155Z,1031.77
2019-04-16T15:17:53.753Z,1031.77
2019-04-16T15:22:33.613Z,1033.01
2019-04-16T15:26:14.761Z,1027.91
2019-04-16T15:30:54.278Z,1027.79
2019-04-16T15:34:28.133Z,1023.01
2019-04-16T15:38:06.525Z,1018.31
2019-04-16T15:41:54.973Z,1020.3
2019-04-16T15:45:37.220Z,1022.53
2019-04-16T15:49:27.248Z,1022.1
2019-04-16T15:52:59.981Z,1022.55
2019-04-16T15:56:41.743Z,1020.71
2019-04-16T16:02:50.658Z,1015.09
2019-04-16T16:06:23.549Z,1010.17
2019-04-16T16:10:12.527Z,1008.07
2019-04-16T16:13:44.104Z,1007.32
2019-04-16T16:17:14.189Z,1004.8
2019-04-16T16:20:44.262Z,1002.17
2019-04-16T16:24:14.298Z,1001.04
2019-04-16T16:27:47.058Z,999.69
2019-04-16T16:31:17.503Z,998.5
2019-04-16T16:34:47.601Z,997.44
2019-04-16T16:38:20.633Z,996.94
2019-04-16T16:41:51.074Z,997.27
2019-04-16T16:45:30.903Z,997.57
2019-04-16T16:49:01.027Z,997.68
2019-04-16T16:52:55.568Z,997.65
2019-04-16T16:56:36.833Z,997.18
2019-04-16T17:00:36.771Z,996.52
2019-04-16T17:04:10.971Z,996.25
2019-04-16T17:07:41.039Z,995.7
2019-04-16T17:11:16.510Z,995.25
2019-04-16T17:14:47.051Z,994.45
2019-04-16T17:18:17.039Z,993.11
2019-04-16T17:21:47.239Z,992.17
2019-04-16T17:25:17.384Z,991.33
2019-04-16T17:28:47.575Z,990.89
2019-04-16T17:32:17.723Z,990.05
2019-04-16T17:35:47.997Z,989.59
2019-04-16T17:39:42.361Z,989.58
2019-04-16T17:43:18.671Z,989.24
2019-04-16T17:47:04.202Z,988.93
2019-04-16T17:50:41.439Z,988.28
2019-04-16T17:54:50.334Z,988.14
2019-04-16T17:58:28.697Z,987.92
2019-04-16T18:03:16.717Z,987.71
2019-04-16T18:06:56.821Z,987.19
2019-04-16T18:11:02.969Z,986.89
2019-04-16T18:15:11.659Z,986.46
2019-04-16T18:18:49.492Z,985.98
2019-04-16T18:22:26.627Z,985.5
2019-04-16T18:26:35.594Z,985.72
2019-04-16T18:30:49.691Z,985.4
2019-04-16T18:34:30.391Z,985.11
2019-04-16T18:38:22.186Z,984.67
2019-04-16T18:41:57.444Z,984.21
2019-04-16T18:46:50.681Z,984.23
2019-04-16T18:50:27.712Z,983.77
2019-04-16T18:53:58.373Z,983.6
2019-04-16T18:57:28.513Z,983.3
2019-04-16T19:00:50.632Z,983.45
2019-04-16T19:04:21.621Z,983.45
2019-04-16T19:07:52.482Z,983.16
2019-04-16T19:11:22.685Z,983.13
2019-04-16T19:14:52.801Z,983.24
2019-04-16T19:18:22.924Z,983.01
2019-04-16T19:21:53.160Z,983.1
2019-04-16T19:25:23.291Z,982.89
2019-04-16T19:28:53.585Z,983.05
2019-04-16T19:32:24.849Z,983.22
2019-04-16T19:35:57.745Z,983.03
2019-04-16T19:39:27.876Z,983.12
2019-04-16T19:43:01.342Z,983.05
2019-04-16T19:46:32.980Z,983.14
2019-04-16T19:50:03.630Z,983.24
2019-04-16T19:53:33.645Z,983.51
2019-04-16T19:57:03.835Z,983.66
2019-04-16T20:00:33.985Z,983.65
2019-04-16T20:04:09.258Z,983.68
2019-04-16T20:07:41.590Z,983.85
2019-04-16T20:11:13.311Z,983.44
2019-04-16T20:14:43.387Z,983.24
2019-04-16T20:18:13.400Z,983.04
2019-04-16T20:21:43.506Z,982.95
2019-04-16T20:25:13.686Z,982.96
2019-04-16T20:28:45.318Z,982.99
2019-04-16T20:32:18.546Z,983.07
2019-04-16T20:35:50.626Z,982.87
2019-04-16T20:39:21.306Z,982.85
2019-04-16T20:42:51.384Z,983.09
2019-04-16T20:46:21.523Z,982.94
2019-04-16T20:49:51.526Z,982.81
2019-04-16T20:53:21.724Z,982.81
2019-04-16T20:56:53.311Z,982.85
2019-04-16T21:00:23.098Z,983.19
2019-04-16T21:04:05.743Z,983.09
2019-04-16T21:07:36.716Z,983.09
2019-04-16T21:11:08.784Z,982.71
2019-04-16T21:14:39.662Z,982.97
2019-04-16T21:18:11.932Z,983.29
2019-04-16T21:21:42.346Z,983.29
2019-04-16T21:25:13.828Z,983.3
2019-04-16T21:28:53.830Z,983.3
2019-04-16T21:32:49.476Z,983.25
2019-04-16T21:36:30.274Z,983.19
2019-04-16T21:40:01.946Z,983.48
2019-04-16T21:43:32.091Z,983.49
2019-04-16T21:47:02.174Z,983.55
2019-04-16T21:50:32.322Z,983.47
2019-04-16T21:54:02.455Z,983.46
2019-04-16T21:57:32.495Z,983.61
2019-04-16T22:01:11.894Z,983.74
2019-04-16T22:04:42.729Z,983.68
2019-04-16T22:08:15.339Z,983.66
2019-04-16T22:11:46.393Z,983.9
2019-04-16T22:15:16.435Z,983.68
2019-04-16T22:18:46.508Z,983.83
2019-04-16T22:22:16.506Z,983.66
2019-04-16T22:25:46.597Z,983.58
2019-04-16T22:29:16.700Z,983.59
2019-04-16T22:32:46.881Z,983.36
2019-04-16T22:36:16.925Z,983.12
2019-04-16T22:39:52.708Z,982.99
2019-04-16T22:45:15.068Z,982.89
2019-04-16T22:48:55.309Z,982.77
2019-04-16T22:52:25.372Z,983.02
2019-04-16T22:55:56.747Z,983.17
2019-04-16T22:59:28.019Z,983.38
2019-04-16T23:00:26.657Z,983.39
2019-04-16T23:03:56.764Z,983.37
2019-04-16T23:07:26.848Z,983.37
2019-04-16T23:10:56.870Z,983.08
2019-04-16T23:14:27.950Z,982.83
2019-04-16T23:17:58.116Z,982.9
2019-04-16T23:21:28.301Z,982.8
2019-04-16T23:24:58.399Z,982.79
2019-04-16T23:28:28.467Z,982.82
2019-04-16T23:31:58.546Z,982.91
2019-04-16T23:35:28.649Z,982.88
2019-04-16T23:39:03.260Z,983.15
2019-04-16T23:42:36.519Z,982.92
2019-04-16T23:46:58.472Z,982.87
2019-04-16T23:51:37.947Z,982.97
2019-04-16T23:55:16.299Z,982.53
2019-04-16T23:58:54.114Z,982.24
